createdAt,value
2019-05-29T00:00:16.425Z,1006.66
2019-05-29T00:01:21.258Z,1006.68
2019-05-29T00:02:18.290Z,1006.69
2019-05-29T00:03:16.386Z,1006.70
2019-05-29T00:04:16.367Z,1006.72
2019-05-29T00:05:16.356Z,1006.74
2019-05-29T00:06:16.367Z,1006.74
2019-05-29T00:07:16.370Z,1006.79
2019-05-29T00:08:16.325Z,1006.78
2019-05-29T00:09:16.313Z,1006.73
2019-05-29T00:10:16.299Z,1006.78
2019-05-29T00:11:16.288Z,1006.77
2019-05-29T00:12:19.678Z,1006.79
2019-05-29T00:13:16.302Z,1006.82
2019-05-29T00:14:25.793Z,1006.84
2019-05-29T00:15:17.246Z,1006.83
2019-05-29T00:16:16.232Z,1006.85
2019-05-29T00:17:16.223Z,1006.83
2019-05-29T00:18:16.208Z,1006.88
2019-05-29T00:19:16.249Z,1006.93
2019-05-29T00:20:16.184Z,1006.93
2019-05-29T00:21:16.176Z,1006.94
2019-05-29T00:22:16.170Z,1006.98
2019-05-29T00:23:16.158Z,1006.97
2019-05-29T00:24:16.157Z,1006.96
2019-05-29T00:25:16.663Z,1006.99
2019-05-29T00:26:16.620Z,1007.03
2019-05-29T00:27:16.106Z,1007.01
2019-05-29T00:28:16.799Z,1007.03
2019-05-29T00:29:16.089Z,1007.04
2019-05-29T00:30:16.992Z,1007.07
2019-05-29T00:31:16.074Z,1007.09
2019-05-29T00:32:17.131Z,1007.08
2019-05-29T00:33:16.070Z,1007.11
2019-05-29T00:34:17.205Z,1007.13
2019-05-29T00:35:16.388Z,1007.09
2019-05-29T00:36:16.495Z,1007.11
2019-05-29T00:37:16.703Z,1007.10
2019-05-29T00:38:16.673Z,1007.13
2019-05-29T00:39:16.864Z,1007.10
2019-05-29T00:40:17.135Z,1007.10
2019-05-29T00:41:17.066Z,1007.14
2019-05-29T00:42:16.467Z,1007.17
2019-05-29T00:43:15.926Z,1007.19
2019-05-29T00:44:15.923Z,1007.20
2019-05-29T00:45:15.940Z,1007.21
2019-05-29T00:46:15.895Z,1007.25
2019-05-29T00:47:15.883Z,1007.23
2019-05-29T00:48:16.138Z,1007.25
2019-05-29T00:49:16.031Z,1007.26
2019-05-29T00:50:16.183Z,1007.26
2019-05-29T00:51:15.851Z,1007.30
2019-05-29T00:52:16.612Z,1007.32
2019-05-29T00:53:16.389Z,1007.33
2019-05-29T00:54:16.553Z,1007.34
2019-05-29T00:55:16.862Z,1007.36
2019-05-29T00:56:16.688Z,1007.39
2019-05-29T00:57:16.962Z,1007.38
2019-05-29T00:58:17.075Z,1007.39
2019-05-29T00:59:15.744Z,1007.41
2019-05-29T01:00:15.735Z,1007.42
2019-05-29T01:01:15.722Z,1007.40
2019-05-29T01:02:15.916Z,1007.46
2019-05-29T01:03:15.935Z,1007.44
2019-05-29T01:04:15.770Z,1007.49
2019-05-29T01:05:16.180Z,1007.49
2019-05-29T01:06:16.063Z,1007.49
2019-05-29T01:07:16.293Z,1007.49
2019-05-29T01:08:16.420Z,1007.49
2019-05-29T01:09:16.445Z,1007.53
2019-05-29T01:10:16.691Z,1007.50
2019-05-29T01:11:16.815Z,1007.52
2019-05-29T01:12:15.598Z,1007.58
2019-05-29T01:13:15.605Z,1007.57
2019-05-29T01:14:15.583Z,1007.60
2019-05-29T01:15:15.572Z,1007.65
2019-05-29T01:16:15.551Z,1007.67
2019-05-29T01:17:15.607Z,1007.67
2019-05-29T01:18:15.798Z,1007.66
2019-05-29T01:19:15.920Z,1007.64
2019-05-29T01:20:15.980Z,1007.68
2019-05-29T01:21:15.975Z,1007.67
2019-05-29T01:22:16.120Z,1007.70
2019-05-29T01:23:16.276Z,1007.64
2019-05-29T01:24:16.298Z,1007.65
2019-05-29T01:25:16.526Z,1007.69
2019-05-29T01:26:16.490Z,1007.68
2019-05-29T01:27:16.769Z,1007.68
2019-05-29T01:28:15.417Z,1007.73
2019-05-29T01:29:15.419Z,1007.75
2019-05-29T01:30:15.395Z,1007.78
2019-05-29T01:31:15.415Z,1007.76
2019-05-29T01:32:15.571Z,1007.77
2019-05-29T01:33:19.411Z,1007.78
2019-05-29T01:34:15.650Z,1007.78
2019-05-29T01:35:15.755Z,1007.75
2019-05-29T01:36:15.920Z,1007.85
2019-05-29T01:37:16.108Z,1007.86
2019-05-29T01:38:15.307Z,1007.88
2019-05-29T01:39:15.297Z,1007.88
2019-05-29T01:40:20.031Z,1007.88
2019-05-29T01:41:17.121Z,1007.87
2019-05-29T01:42:15.275Z,1007.92
2019-05-29T01:43:15.395Z,1007.91
2019-05-29T01:44:15.378Z,1007.92
2019-05-29T01:45:15.493Z,1007.96
2019-05-29T01:46:15.268Z,1007.97
2019-05-29T01:47:15.417Z,1008.03
2019-05-29T01:48:15.446Z,1008.05
2019-05-29T01:49:16.029Z,1008.05
2019-05-29T01:50:15.540Z,1008.04
2019-05-29T01:51:15.462Z,1008.03
2019-05-29T01:52:15.490Z,1008.07
2019-05-29T01:53:15.540Z,1008.05
2019-05-29T01:54:15.465Z,1008.04
2019-05-29T01:55:15.722Z,1008.02
2019-05-29T01:56:15.549Z,1007.99
2019-05-29T01:57:15.753Z,1008.04
2019-05-29T01:58:15.640Z,1008.04
2019-05-29T01:59:15.695Z,1008.06
2019-05-29T02:00:15.696Z,1008.11
2019-05-29T02:01:15.823Z,1008.08
2019-05-29T02:02:15.778Z,1008.15
2019-05-29T02:03:15.787Z,1008.16
2019-05-29T02:04:15.817Z,1008.16
2019-05-29T02:05:15.774Z,1008.19
2019-05-29T02:06:15.804Z,1008.16
2019-05-29T02:07:15.835Z,1008.21
2019-05-29T02:08:15.960Z,1008.19
2019-05-29T02:09:15.923Z,1008.21
2019-05-29T02:10:15.979Z,1008.21
2019-05-29T02:11:15.070Z,1008.22
2019-05-29T02:12:16.194Z,1008.21
2019-05-29T02:13:15.174Z,1008.21
2019-05-29T02:14:14.901Z,1008.24
2019-05-29T02:15:23.738Z,1008.30
2019-05-29T02:16:16.446Z,1008.26
2019-05-29T02:17:15.593Z,1008.32
2019-05-29T02:18:14.853Z,1008.32
2019-05-29T02:19:15.737Z,1008.33
2019-05-29T02:20:14.831Z,1008.35
2019-05-29T02:21:15.913Z,1008.40
2019-05-29T02:22:14.827Z,1008.42
2019-05-29T02:23:15.750Z,1008.41
2019-05-29T02:24:14.799Z,1008.42
2019-05-29T02:25:17.286Z,1008.41
2019-05-29T02:26:14.763Z,1008.45
2019-05-29T02:27:14.759Z,1008.48
2019-05-29T02:28:14.766Z,1008.47
2019-05-29T02:29:14.769Z,1008.49
2019-05-29T02:30:14.719Z,1008.46
2019-05-29T02:31:14.711Z,1008.47
2019-05-29T02:32:14.706Z,1008.51
2019-05-29T02:33:14.685Z,1008.53
2019-05-29T02:34:14.685Z,1008.51
2019-05-29T02:35:14.677Z,1008.55
2019-05-29T02:36:14.653Z,1008.53
2019-05-29T02:37:14.644Z,1008.55
2019-05-29T02:38:14.631Z,1008.51
2019-05-29T02:39:14.623Z,1008.52
2019-05-29T02:40:14.629Z,1008.52
2019-05-29T02:41:14.597Z,1008.52
2019-05-29T02:42:14.587Z,1008.55
2019-05-29T02:43:14.573Z,1008.53
2019-05-29T02:44:14.582Z,1008.51
2019-05-29T02:45:14.555Z,1008.56
2019-05-29T02:46:14.552Z,1008.53
2019-05-29T02:47:14.530Z,1008.56
2019-05-29T02:48:14.513Z,1008.56
2019-05-29T02:49:14.506Z,1008.62
2019-05-29T02:50:14.508Z,1008.64
2019-05-29T02:51:14.497Z,1008.66
2019-05-29T02:52:14.486Z,1008.71
2019-05-29T02:53:14.460Z,1008.74
2019-05-29T02:54:14.457Z,1008.69
2019-05-29T02:55:14.456Z,1008.71
2019-05-29T02:56:14.455Z,1008.72
2019-05-29T02:57:14.413Z,1008.75
2019-05-29T02:58:14.406Z,1008.80
2019-05-29T02:59:14.402Z,1008.82
2019-05-29T03:00:14.383Z,1008.84
2019-05-29T03:01:14.411Z,1008.87
2019-05-29T03:02:14.358Z,1008.89
2019-05-29T03:03:14.347Z,1008.88
2019-05-29T03:04:14.345Z,1008.91
2019-05-29T03:05:14.324Z,1008.90
2019-05-29T03:06:14.326Z,1008.94
2019-05-29T03:07:14.342Z,1008.92
2019-05-29T03:08:14.302Z,1009.01
2019-05-29T03:09:14.284Z,1009.01
2019-05-29T03:10:14.272Z,1009.03
2019-05-29T03:11:14.270Z,1008.99
2019-05-29T03:12:14.265Z,1009.02
2019-05-29T03:13:14.268Z,1009.06
2019-05-29T03:14:14.225Z,1009.06
2019-05-29T03:15:14.299Z,1009.09
2019-05-29T03:16:14.202Z,1009.12
2019-05-29T03:17:14.219Z,1009.10
2019-05-29T03:18:14.195Z,1009.10
2019-05-29T03:19:14.175Z,1009.11
2019-05-29T03:20:14.153Z,1009.10
2019-05-29T03:21:14.145Z,1009.13
2019-05-29T03:22:14.132Z,1009.13
2019-05-29T03:23:14.133Z,1009.15
2019-05-29T03:24:14.128Z,1009.13
2019-05-29T03:25:14.108Z,1009.16
2019-05-29T03:26:14.085Z,1009.17
2019-05-29T03:27:14.079Z,1009.17
2019-05-29T03:28:14.063Z,1009.20
2019-05-29T03:29:14.083Z,1009.24
2019-05-29T03:30:14.041Z,1009.24
2019-05-29T03:31:14.043Z,1009.27
2019-05-29T03:32:14.803Z,1009.27
2019-05-29T03:33:14.025Z,1009.31
2019-05-29T03:34:14.002Z,1009.34
2019-05-29T03:35:14.010Z,1009.38
2019-05-29T03:36:13.976Z,1009.44
2019-05-29T03:37:13.975Z,1009.50
2019-05-29T03:38:13.960Z,1009.49
2019-05-29T03:39:13.944Z,1009.52
2019-05-29T03:40:13.935Z,1009.56
2019-05-29T03:41:13.940Z,1009.57
2019-05-29T03:42:13.908Z,1009.56
2019-05-29T03:43:13.906Z,1009.61
2019-05-29T03:44:13.885Z,1009.63
2019-05-29T03:45:13.875Z,1009.64
2019-05-29T03:46:30.412Z,1009.67
2019-05-29T03:47:14.850Z,1009.66
2019-05-29T03:48:13.842Z,1009.67
2019-05-29T03:49:13.838Z,1009.66
2019-05-29T03:50:15.768Z,1009.67
2019-05-29T03:51:13.903Z,1009.67
2019-05-29T03:52:13.798Z,1009.70
2019-05-29T03:53:13.785Z,1009.73
2019-05-29T03:54:13.774Z,1009.75
2019-05-29T03:55:13.769Z,1009.76
2019-05-29T03:56:13.776Z,1009.77
2019-05-29T03:57:13.742Z,1009.78
2019-05-29T03:58:13.738Z,1009.78
2019-05-29T03:59:13.742Z,1009.80
2019-05-29T04:00:13.706Z,1009.80
2019-05-29T04:01:13.703Z,1009.84
2019-05-29T04:02:13.705Z,1009.84
2019-05-29T04:03:13.674Z,1009.84
2019-05-29T04:04:13.662Z,1009.90
2019-05-29T04:05:13.654Z,1009.86
2019-05-29T04:06:13.643Z,1009.88
2019-05-29T04:07:13.652Z,1009.89
2019-05-29T04:08:13.618Z,1009.89
2019-05-29T04:09:13.607Z,1009.94
2019-05-29T04:10:13.592Z,1009.94
2019-05-29T04:11:13.585Z,1009.97
2019-05-29T04:12:13.593Z,1009.99
2019-05-29T04:13:13.569Z,1009.99
2019-05-29T04:14:13.568Z,1010.00
2019-05-29T04:15:13.536Z,1010.00
2019-05-29T04:16:13.524Z,1010.04
2019-05-29T04:17:13.546Z,1010.03
2019-05-29T04:18:13.513Z,1010.03
2019-05-29T04:19:13.503Z,1010.04
2019-05-29T04:20:13.487Z,1010.06
2019-05-29T04:21:13.470Z,1010.09
2019-05-29T04:22:13.463Z,1010.11
2019-05-29T04:23:13.464Z,1010.14
2019-05-29T04:24:13.435Z,1010.13
2019-05-29T04:25:13.429Z,1010.11
2019-05-29T04:26:13.415Z,1010.15
2019-05-29T04:27:13.409Z,1010.18
2019-05-29T04:28:13.429Z,1010.21
2019-05-29T04:29:13.376Z,1010.23
2019-05-29T04:30:13.374Z,1010.21
2019-05-29T04:31:13.370Z,1010.27
2019-05-29T04:32:13.352Z,1010.27
2019-05-29T04:33:13.331Z,1010.27
2019-05-29T04:34:13.336Z,1010.27
2019-05-29T04:35:13.309Z,1010.29
2019-05-29T04:36:13.301Z,1010.34
2019-05-29T04:37:13.292Z,1010.36
2019-05-29T04:38:13.276Z,1010.40
2019-05-29T04:39:13.320Z,1010.37
2019-05-29T04:40:13.254Z,1010.39
2019-05-29T04:41:13.243Z,1010.43
2019-05-29T04:42:13.241Z,1010.48
2019-05-29T04:43:13.222Z,1010.46
2019-05-29T04:44:13.212Z,1010.54
2019-05-29T04:45:13.229Z,1010.57
2019-05-29T04:46:13.187Z,1010.58
2019-05-29T04:47:13.178Z,1010.62
2019-05-29T04:48:13.167Z,1010.62
2019-05-29T04:49:13.154Z,1010.62
2019-05-29T04:50:13.166Z,1010.71
2019-05-29T04:51:13.219Z,1010.80
2019-05-29T04:52:13.116Z,1010.71
2019-05-29T04:53:13.158Z,1010.74
2019-05-29T04:54:13.099Z,1010.73
2019-05-29T04:55:13.084Z,1010.75
2019-05-29T04:56:13.123Z,1010.76
2019-05-29T04:57:13.068Z,1010.68
2019-05-29T04:58:13.047Z,1010.69
2019-05-29T04:59:13.068Z,1010.70
2019-05-29T05:00:13.026Z,1010.72
2019-05-29T05:01:13.052Z,1010.69
2019-05-29T05:02:13.032Z,1010.70
2019-05-29T05:03:12.994Z,1010.75
2019-05-29T05:04:12.982Z,1010.75
2019-05-29T05:05:12.987Z,1010.73
2019-05-29T05:06:12.962Z,1010.74
2019-05-29T05:07:12.947Z,1010.78
2019-05-29T05:08:12.958Z,1010.75
2019-05-29T05:09:12.929Z,1010.80
2019-05-29T05:10:12.920Z,1010.76
2019-05-29T05:11:12.939Z,1010.77
2019-05-29T05:12:12.890Z,1010.82
2019-05-29T05:13:12.879Z,1010.78
2019-05-29T05:14:12.874Z,1010.78
2019-05-29T05:15:12.859Z,1010.80
2019-05-29T05:16:12.867Z,1010.76
2019-05-29T05:17:25.372Z,1010.79
2019-05-29T05:18:13.824Z,1010.80
2019-05-29T05:19:12.834Z,1010.82
2019-05-29T05:20:12.803Z,1010.83
2019-05-29T05:21:12.798Z,1010.81
2019-05-29T05:22:12.783Z,1010.86
2019-05-29T05:23:12.774Z,1010.82
2019-05-29T05:24:12.759Z,1010.83
2019-05-29T05:25:12.780Z,1010.83
2019-05-29T05:26:12.738Z,1010.80
2019-05-29T05:27:12.727Z,1010.83
2019-05-29T05:28:12.721Z,1010.83
2019-05-29T05:29:12.733Z,1010.83
2019-05-29T05:30:12.691Z,1010.83
2019-05-29T05:31:12.721Z,1010.90
2019-05-29T05:32:12.664Z,1010.85
2019-05-29T05:33:12.887Z,1010.85
2019-05-29T05:34:12.641Z,1010.86
2019-05-29T05:35:14.489Z,1010.91
2019-05-29T05:36:12.630Z,1010.90
2019-05-29T05:37:12.627Z,1010.93
2019-05-29T05:38:12.605Z,1010.97
2019-05-29T05:39:12.611Z,1010.92
2019-05-29T05:40:12.582Z,1010.97
2019-05-29T05:41:12.578Z,1011.01
2019-05-29T05:42:12.552Z,1010.98
2019-05-29T05:43:23.562Z,1011.01
2019-05-29T05:44:13.546Z,1011.05
2019-05-29T05:45:12.536Z,1011.08
2019-05-29T05:46:12.547Z,1011.05
2019-05-29T05:47:12.498Z,1011.08
2019-05-29T05:48:12.486Z,1011.05
2019-05-29T05:49:12.480Z,1011.08
2019-05-29T05:50:12.466Z,1011.07
2019-05-29T05:51:12.467Z,1011.06
2019-05-29T05:52:12.445Z,1011.09
2019-05-29T05:53:12.481Z,1011.12
2019-05-29T05:54:12.423Z,1011.14
2019-05-29T05:55:12.430Z,1011.11
2019-05-29T05:56:12.467Z,1011.10
2019-05-29T05:57:12.433Z,1011.11
2019-05-29T05:58:12.378Z,1011.11
2019-05-29T05:59:12.367Z,1011.09
2019-05-29T06:00:12.394Z,1011.15
2019-05-29T06:01:12.376Z,1011.15
2019-05-29T06:02:12.349Z,1011.13
2019-05-29T06:03:12.361Z,1011.16
2019-05-29T06:04:12.306Z,1011.15
2019-05-29T06:05:12.313Z,1011.18
2019-05-29T06:06:12.468Z,1011.18
2019-05-29T06:07:12.280Z,1011.21
2019-05-29T06:08:12.262Z,1011.22
2019-05-29T06:09:12.366Z,1011.20
2019-05-29T06:10:12.250Z,1011.23
2019-05-29T06:11:12.262Z,1011.25
2019-05-29T06:12:12.240Z,1011.23
2019-05-29T06:13:12.279Z,1011.22
2019-05-29T06:14:12.231Z,1011.23
2019-05-29T06:15:12.229Z,1011.25
2019-05-29T06:16:12.190Z,1011.34
2019-05-29T06:17:12.171Z,1011.28
2019-05-29T06:18:20.996Z,1011.36
2019-05-29T06:19:13.180Z,1011.35
2019-05-29T06:20:12.134Z,1011.37
2019-05-29T06:21:12.123Z,1011.30
2019-05-29T06:22:12.117Z,1011.35
2019-05-29T06:23:12.100Z,1011.36
2019-05-29T06:24:12.093Z,1011.34
2019-05-29T06:25:12.205Z,1011.38
2019-05-29T06:26:12.133Z,1011.35
2019-05-29T06:27:12.064Z,1011.33
2019-05-29T06:28:12.063Z,1011.38
2019-05-29T06:29:12.051Z,1011.38
2019-05-29T06:30:12.035Z,1011.29
2019-05-29T06:31:12.026Z,1011.26
2019-05-29T06:32:12.032Z,1011.35
2019-05-29T06:33:12.001Z,1011.37
2019-05-29T06:34:11.993Z,1011.37
2019-05-29T06:35:12.007Z,1011.34
2019-05-29T06:36:11.991Z,1011.34
2019-05-29T06:37:11.996Z,1011.42
2019-05-29T06:38:11.938Z,1011.58
2019-05-29T06:39:11.942Z,1011.45
2019-05-29T06:40:11.916Z,1011.46
2019-05-29T06:41:11.907Z,1011.48
2019-05-29T06:42:11.895Z,1011.43
2019-05-29T06:43:12.153Z,1011.42
2019-05-29T06:44:11.876Z,1011.42
2019-05-29T06:45:11.882Z,1011.63
2019-05-29T06:46:11.848Z,1011.69
2019-05-29T06:47:11.840Z,1011.75
2019-05-29T06:48:11.827Z,1011.68
2019-05-29T06:49:11.825Z,1011.61
2019-05-29T06:50:11.817Z,1011.53
2019-05-29T06:51:11.798Z,1011.52
2019-05-29T06:52:11.786Z,1011.61
2019-05-29T06:53:11.771Z,1011.63
2019-05-29T06:54:11.773Z,1011.79
2019-05-29T06:55:11.783Z,1011.82
2019-05-29T06:56:11.748Z,1011.82
2019-05-29T06:57:11.728Z,1011.84
2019-05-29T06:58:11.720Z,1011.78
2019-05-29T06:59:11.738Z,1011.79
2019-05-29T07:00:11.696Z,1011.79
2019-05-29T07:01:11.694Z,1011.80
2019-05-29T07:02:11.731Z,1011.85
2019-05-29T07:03:11.659Z,1011.87
2019-05-29T07:04:12.611Z,1011.88
2019-05-29T07:05:11.635Z,1011.84
2019-05-29T07:06:11.630Z,1011.89
2019-05-29T07:07:11.636Z,1011.74
2019-05-29T07:08:19.207Z,1011.95
2019-05-29T07:09:12.623Z,1011.82
2019-05-29T07:10:11.581Z,1011.69
2019-05-29T07:11:11.582Z,1011.78
2019-05-29T07:12:11.561Z,1011.75
2019-05-29T07:13:11.554Z,1011.72
2019-05-29T07:14:11.562Z,1011.96
2019-05-29T07:15:11.542Z,1011.95
2019-05-29T07:16:11.523Z,1011.95
2019-05-29T07:17:11.521Z,1011.96
2019-05-29T07:18:11.494Z,1011.94
2019-05-29T07:19:25.678Z,1011.96
2019-05-29T07:20:12.486Z,1011.93
2019-05-29T07:21:11.459Z,1011.95
2019-05-29T07:22:11.463Z,1011.76
2019-05-29T07:23:11.440Z,1011.98
2019-05-29T07:24:11.431Z,1011.82
2019-05-29T07:25:11.448Z,1011.83
2019-05-29T07:26:11.409Z,1011.88
2019-05-29T07:27:13.582Z,1011.86
2019-05-29T07:28:11.390Z,1011.86
2019-05-29T07:29:11.372Z,1011.84
2019-05-29T07:30:11.367Z,1011.90
2019-05-29T07:31:11.393Z,1011.86
2019-05-29T07:32:11.348Z,1011.87
2019-05-29T07:33:11.329Z,1011.88
2019-05-29T07:34:11.316Z,1011.90
2019-05-29T07:35:11.306Z,1011.92
2019-05-29T07:36:11.306Z,1011.97
2019-05-29T07:37:11.309Z,1011.95
2019-05-29T07:38:11.279Z,1011.99
2019-05-29T07:39:11.270Z,1011.99
2019-05-29T07:40:11.257Z,1012.07
2019-05-29T07:41:11.262Z,1012.02
2019-05-29T07:42:11.403Z,1012.09
2019-05-29T07:43:11.231Z,1012.26
2019-05-29T07:44:11.213Z,1012.26
2019-05-29T07:45:11.211Z,1012.28
2019-05-29T07:46:11.182Z,1012.31
2019-05-29T07:47:11.191Z,1012.33
2019-05-29T07:48:11.203Z,1012.33
2019-05-29T07:49:11.152Z,1012.34
2019-05-29T07:50:11.138Z,1012.38
2019-05-29T07:51:11.194Z,1012.31
2019-05-29T07:52:11.139Z,1012.12
2019-05-29T07:53:11.174Z,1012.18
2019-05-29T07:54:11.189Z,1012.12
2019-05-29T07:55:11.130Z,1012.13
2019-05-29T07:56:22.193Z,1012.17
2019-05-29T07:57:12.067Z,1012.12
2019-05-29T07:58:11.059Z,1012.12
2019-05-29T07:59:11.046Z,1012.15
2019-05-29T08:00:11.047Z,1012.23
2019-05-29T08:01:13.629Z,1012.27
2019-05-29T08:02:11.030Z,1012.24
2019-05-29T08:03:10.997Z,1012.21
2019-05-29T08:04:10.987Z,1012.23
2019-05-29T08:05:10.985Z,1012.23
2019-05-29T08:06:10.976Z,1012.28
2019-05-29T08:07:10.971Z,1012.42
2019-05-29T08:08:10.949Z,1012.24
2019-05-29T08:09:10.961Z,1012.25
2019-05-29T08:10:10.922Z,1012.25
2019-05-29T08:11:10.923Z,1012.29
2019-05-29T08:12:10.895Z,1012.31
2019-05-29T08:13:11.147Z,1012.32
2019-05-29T08:14:10.907Z,1012.30
2019-05-29T08:15:10.906Z,1012.31
2019-05-29T08:16:10.861Z,1012.38
2019-05-29T08:17:10.853Z,1012.33
2019-05-29T08:18:10.828Z,1012.36
2019-05-29T08:19:10.819Z,1012.36
2019-05-29T08:20:10.811Z,1012.37
2019-05-29T08:21:10.814Z,1012.41
2019-05-29T08:22:10.782Z,1012.62
2019-05-29T08:23:10.843Z,1012.63
2019-05-29T08:24:10.783Z,1012.63
2019-05-29T08:25:10.785Z,1012.62
2019-05-29T08:26:10.766Z,1012.44
2019-05-29T08:27:10.726Z,1012.55
2019-05-29T08:28:10.716Z,1012.64
2019-05-29T08:29:10.705Z,1012.48
2019-05-29T08:30:10.698Z,1012.43
2019-05-29T08:31:10.719Z,1012.44
2019-05-29T08:32:10.679Z,1012.49
2019-05-29T08:33:10.666Z,1012.49
2019-05-29T08:34:10.652Z,1012.45
2019-05-29T08:35:10.647Z,1012.50
2019-05-29T08:36:10.674Z,1012.53
2019-05-29T08:37:10.644Z,1012.48
2019-05-29T08:38:10.621Z,1012.50
2019-05-29T08:39:10.598Z,1012.55
2019-05-29T08:40:10.593Z,1012.50
2019-05-29T08:41:10.576Z,1012.64
2019-05-29T08:42:22.496Z,1012.51
2019-05-29T08:43:11.564Z,1012.58
2019-05-29T08:44:10.541Z,1012.57
2019-05-29T08:45:10.536Z,1012.55
2019-05-29T08:46:10.528Z,1012.58
2019-05-29T08:47:11.204Z,1012.66
2019-05-29T08:48:10.496Z,1012.67
2019-05-29T08:49:10.517Z,1012.85
2019-05-29T08:50:18.214Z,1012.88
2019-05-29T08:51:11.459Z,1012.83
2019-05-29T08:52:12.445Z,1012.80
2019-05-29T08:53:10.439Z,1012.85
2019-05-29T08:54:23.422Z,1012.85
2019-05-29T08:55:13.801Z,1012.74
2019-05-29T08:56:10.406Z,1012.75
2019-05-29T08:57:10.402Z,1012.76
2019-05-29T08:58:10.389Z,1012.74
2019-05-29T08:59:10.392Z,1012.80
2019-05-29T09:00:10.366Z,1012.77
2019-05-29T09:01:10.359Z,1012.73
2019-05-29T09:02:10.348Z,1012.73
2019-05-29T09:03:10.349Z,1012.79
2019-05-29T09:04:10.341Z,1012.79
2019-05-29T09:05:10.332Z,1012.82
2019-05-29T09:06:13.485Z,1012.68
2019-05-29T09:07:10.289Z,1012.68
2019-05-29T09:08:10.281Z,1012.63
2019-05-29T09:09:10.281Z,1012.84
2019-05-29T09:10:10.275Z,1012.78
2019-05-29T09:11:10.251Z,1012.72
2019-05-29T09:12:10.234Z,1012.70
2019-05-29T09:13:10.241Z,1012.69
2019-05-29T09:14:10.218Z,1012.70
2019-05-29T09:15:10.672Z,1012.78
2019-05-29T09:16:10.229Z,1012.74
2019-05-29T09:17:10.223Z,1012.80
2019-05-29T09:18:10.170Z,1012.79
2019-05-29T09:19:10.161Z,1012.83
2019-05-29T09:20:27.117Z,1012.76
2019-05-29T09:21:12.485Z,1012.94
2019-05-29T09:22:10.129Z,1012.78
2019-05-29T09:23:10.158Z,1012.85
2019-05-29T09:24:10.161Z,1012.85
2019-05-29T09:25:10.089Z,1012.85
2019-05-29T09:26:16.008Z,1012.89
2019-05-29T09:27:11.081Z,1012.91
2019-05-29T09:28:10.072Z,1013.00
2019-05-29T09:29:10.053Z,1013.04
2019-05-29T09:30:10.041Z,1012.92
2019-05-29T09:31:10.035Z,1013.05
2019-05-29T09:32:10.043Z,1012.88
2019-05-29T09:33:10.011Z,1013.01
2019-05-29T09:34:10.011Z,1013.07
2019-05-29T09:35:09.986Z,1013.09
2019-05-29T09:36:09.975Z,1013.06
2019-05-29T09:37:09.965Z,1013.05
2019-05-29T09:38:09.967Z,1012.92
2019-05-29T09:39:09.940Z,1012.87
2019-05-29T09:40:10.002Z,1012.93
2019-05-29T09:41:09.928Z,1013.00
2019-05-29T09:42:09.909Z,1012.98
2019-05-29T09:43:09.921Z,1012.90
2019-05-29T09:44:25.111Z,1012.98
2019-05-29T09:45:10.873Z,1013.06
2019-05-29T09:46:09.872Z,1013.04
2019-05-29T09:47:09.889Z,1013.03
2019-05-29T09:48:09.855Z,1013.03
2019-05-29T09:49:09.870Z,1013.02
2019-05-29T09:50:09.840Z,1013.07
2019-05-29T09:51:20.694Z,1013.22
2019-05-29T09:52:10.799Z,1013.21
2019-05-29T09:53:09.797Z,1013.26
2019-05-29T09:54:09.811Z,1013.23
2019-05-29T09:55:09.797Z,1013.19
2019-05-29T09:56:09.757Z,1013.15
2019-05-29T09:57:09.754Z,1013.08
2019-05-29T09:58:09.742Z,1013.21
2019-05-29T09:59:09.765Z,1013.16
2019-05-29T10:00:09.714Z,1013.09
2019-05-29T10:01:22.747Z,1012.97
2019-05-29T10:02:10.692Z,1013.14
2019-05-29T10:03:09.680Z,1013.13
2019-05-29T10:04:09.677Z,1012.96
2019-05-29T10:05:09.671Z,1012.96
2019-05-29T10:06:09.756Z,1012.96
2019-05-29T10:07:09.638Z,1012.95
2019-05-29T10:08:09.632Z,1013.02
2019-05-29T10:09:09.626Z,1013.00
2019-05-29T10:10:09.615Z,1012.99
2019-05-29T10:11:10.925Z,1013.19
2019-05-29T10:12:09.585Z,1013.23
2019-05-29T10:13:09.574Z,1013.21
2019-05-29T10:14:09.561Z,1013.20
2019-05-29T10:15:09.567Z,1013.19
2019-05-29T10:16:09.541Z,1013.14
2019-05-29T10:17:12.430Z,1013.10
2019-05-29T10:18:30.026Z,1013.14
2019-05-29T10:19:10.509Z,1013.07
2019-05-29T10:20:09.496Z,1013.05
2019-05-29T10:21:09.486Z,1013.09
2019-05-29T10:22:09.559Z,1013.00
2019-05-29T10:23:09.462Z,1013.05
2019-05-29T10:24:09.488Z,1012.97
2019-05-29T10:25:09.442Z,1013.04
2019-05-29T10:26:09.433Z,1013.14
2019-05-29T10:27:09.422Z,1013.13
2019-05-29T10:28:09.420Z,1013.08
2019-05-29T10:29:10.124Z,1013.08
2019-05-29T10:30:09.399Z,1013.03
2019-05-29T10:31:09.375Z,1012.97
2019-05-29T10:32:09.370Z,1013.05
2019-05-29T10:33:09.398Z,1013.08
2019-05-29T10:34:09.347Z,1013.10
2019-05-29T10:35:09.335Z,1013.06
2019-05-29T10:36:09.331Z,1013.00
2019-05-29T10:37:09.310Z,1013.03
2019-05-29T10:38:09.306Z,1012.97
2019-05-29T10:39:12.580Z,1013.04
2019-05-29T10:40:09.282Z,1013.04
2019-05-29T10:41:09.274Z,1013.01
2019-05-29T10:42:09.265Z,1013.02
2019-05-29T10:43:09.268Z,1013.04
2019-05-29T10:44:12.697Z,1013.08
2019-05-29T10:45:09.229Z,1013.17
2019-05-29T10:46:09.214Z,1013.16
2019-05-29T10:47:09.198Z,1013.20
2019-05-29T10:48:09.246Z,1013.21
2019-05-29T10:49:09.200Z,1013.16
2019-05-29T10:50:09.178Z,1013.19
2019-05-29T10:51:09.154Z,1013.22
2019-05-29T10:52:15.847Z,1013.10
2019-05-29T10:53:10.140Z,1013.07
2019-05-29T10:54:09.137Z,1013.17
2019-05-29T10:55:09.151Z,1013.15
2019-05-29T10:56:09.098Z,1013.09
2019-05-29T10:57:09.089Z,1013.08
2019-05-29T10:58:09.086Z,1013.12
2019-05-29T10:59:09.093Z,1013.10
2019-05-29T11:00:09.053Z,1013.17
2019-05-29T11:01:09.055Z,1013.03
2019-05-29T11:02:09.032Z,1013.10
2019-05-29T11:03:09.028Z,1013.11
2019-05-29T11:04:09.029Z,1013.20
2019-05-29T11:05:09.022Z,1013.11
2019-05-29T11:06:09.011Z,1013.11
2019-05-29T11:07:09.022Z,1013.11
2019-05-29T11:08:08.967Z,1013.13
2019-05-29T11:09:08.952Z,1013.13
2019-05-29T11:10:08.943Z,1013.17
2019-05-29T11:11:08.931Z,1013.03
2019-05-29T11:12:08.937Z,1013.04
2019-05-29T11:13:08.921Z,1013.09
2019-05-29T11:14:08.898Z,1013.09
2019-05-29T11:15:20.962Z,1013.10
2019-05-29T11:16:09.882Z,1013.04
2019-05-29T11:17:08.879Z,1013.13
2019-05-29T11:18:08.855Z,1013.17
2019-05-29T11:19:08.846Z,1013.05
2019-05-29T11:20:08.836Z,1013.16
2019-05-29T11:21:08.831Z,1013.24
2019-05-29T11:22:25.310Z,1013.16
2019-05-29T11:23:09.817Z,1013.21
2019-05-29T11:24:08.812Z,1013.16
2019-05-29T11:25:21.406Z,1013.19
2019-05-29T11:26:09.765Z,1013.10
2019-05-29T11:27:08.756Z,1013.04
2019-05-29T11:28:08.775Z,1013.08
2019-05-29T11:29:08.737Z,1013.09
2019-05-29T11:30:08.720Z,1013.15
2019-05-29T11:31:08.715Z,1013.14
2019-05-29T11:32:08.744Z,1013.17
2019-05-29T11:33:08.696Z,1013.16
2019-05-29T11:34:08.701Z,1013.17
2019-05-29T11:35:08.673Z,1013.16
2019-05-29T11:36:12.805Z,1013.16
2019-05-29T11:37:08.645Z,1013.22
2019-05-29T11:38:08.636Z,1013.17
2019-05-29T11:39:08.624Z,1013.20
2019-05-29T11:40:08.618Z,1013.22
2019-05-29T11:41:25.270Z,1013.22
2019-05-29T11:42:26.018Z,1013.16
2019-05-29T11:43:09.571Z,1013.18
2019-05-29T11:44:08.565Z,1013.15
2019-05-29T11:45:08.558Z,1013.14
2019-05-29T11:46:08.551Z,1013.19
2019-05-29T11:47:08.526Z,1013.19
2019-05-29T11:48:08.519Z,1013.14
2019-05-29T11:49:08.503Z,1013.13
2019-05-29T11:50:18.731Z,1013.19
2019-05-29T11:51:09.520Z,1013.13
2019-05-29T11:52:23.311Z,1013.17
2019-05-29T11:53:09.461Z,1013.08
2019-05-29T11:54:08.447Z,1013.10
2019-05-29T11:55:08.606Z,1013.13
2019-05-29T11:56:08.423Z,1013.10
2019-05-29T11:57:08.437Z,1013.09
2019-05-29T11:58:08.406Z,1013.11
2019-05-29T11:59:08.418Z,1013.13
2019-05-29T12:00:19.059Z,1013.11
2019-05-29T12:01:09.364Z,1013.11
2019-05-29T12:02:08.371Z,1013.20
2019-05-29T12:03:08.421Z,1013.16
2019-05-29T12:04:24.230Z,1013.16
2019-05-29T12:05:09.321Z,1013.17